Time;durP1;ratioP1;P1;durP2;ratioP2;P2;SDS_P1;SDS_P2;PMS_P1;PMS_P2;Temp;Humidity;BMP_temperature;BMP_pressure;BME280_temperature;BME280_humidity;BME280_pressure;Samples;Min_cycle;Max_cycle;Signal;HPM_P1;HPM_P2
2024/01/22 08:28:49;;;;;;;3.67;0.50;;;10.90;99.90;;;;;;4946258;23;20331;-74
2024/01/22 08:31:16;;;;;;;1.83;0.40;;;10.80;99.90;;;;;;4938428;29;20219;-75
2024/01/22 08:33:44;;;;;;;3.67;0.83;;;10.80;99.90;;;;;;4937416;29;20244;-75
2024/01/22 08:36:11;;;;;;;1.93;0.60;;;10.90;99.90;;;;;;4938705;29;20292;-75
2024/01/22 08:38:38;;;;;;;1.60;0.63;;;11.00;99.90;;;;;;4936309;29;20307;-75
2024/01/22 08:41:05;;;;;;;1.87;0.40;;;11.00;99.90;;;;;;4927032;29;20699;-75
2024/01/22 08:43:32;;;;;;;3.77;0.63;;;11.10;99.90;;;;;;4942497;29;20264;-74
2024/01/22 08:46:00;;;;;;;4.23;0.50;;;11.10;99.90;;;;;;4946793;29;20317;-74
2024/01/22 08:48:27;;;;;;;1.10;0.70;;;11.20;99.90;;;;;;4939113;29;20220;-74
2024/01/22 08:50:54;;;;;;;5.27;0.43;;;11.20;99.90;;;;;;4938061;29;20221;-75
2024/01/22 08:53:21;;;;;;;1.63;0.50;;;11.20;99.90;;;;;;4937998;29;20240;-75
2024/01/22 08:55:48;;;;;;;5.30;0.60;;;11.30;99.90;;;;;;4937980;29;20209;-74
2024/01/22 08:58:15;;;;;;;8.13;0.60;;;11.30;99.90;;;;;;4937479;29;20582;-74
2024/01/22 09:00:42;;;;;;;3.37;0.63;;;11.40;99.90;;;;;;4937984;29;20232;-74
2024/01/22 09:03:10;;;;;;;2.90;0.57;;;11.50;99.90;;;;;;4937663;29;20767;-75
2024/01/22 09:05:38;;;;;;;5.27;0.53;;;11.50;99.90;;;;;;4935221;29;20616;-74
2024/01/22 09:08:05;;;;;;;1.83;0.30;;;11.50;99.90;;;;;;4936934;29;20228;-74
2024/01/22 09:10:33;;;;;;;3.50;0.80;;;11.50;99.90;;;;;;4937869;29;20596;-74
2024/01/22 09:12:59;;;;;;;0.70;0.57;;;11.60;99.90;;;;;;4937483;29;20321;-74
2024/01/22 09:15:26;;;;;;;6.40;0.37;;;11.60;99.90;;;;;;4937489;29;20213;-74
2024/01/22 09:17:53;;;;;;;7.17;0.87;;;11.60;99.90;;;;;;4937388;29;20209;-74
2024/01/22 09:20:22;;;;;;;12.03;0.80;;;11.60;99.90;;;;;;4937424;29;20652;-74
2024/01/22 09:22:49;;;;;;;2.07;0.70;;;11.60;99.90;;;;;;4937694;29;20224;-75
2024/01/22 09:25:16;;;;;;;1.97;0.70;;;11.60;99.90;;;;;;4937432;29;20620;-74
2024/01/22 09:27:43;;;;;;;5.77;0.50;;;11.60;99.90;;;;;;4937051;29;20216;-74
2024/01/22 09:30:10;;;;;;;2.80;1.17;;;11.60;99.90;;;;;;4937036;29;20291;-74
2024/01/22 09:32:37;;;;;;;4.97;0.60;;;11.70;99.90;;;;;;4937083;29;20237;-74
2024/01/22 09:35:05;;;;;;;1.37;0.30;;;11.80;99.90;;;;;;4936780;29;20229;-75
2024/01/22 09:37:34;;;;;;;1.27;0.40;;;11.80;99.90;;;;;;4937027;29;20217;-75
2024/01/22 09:40:01;;;;;;;5.03;0.73;;;11.90;99.90;;;;;;4949426;29;20216;-74
2024/01/22 09:42:29;;;;;;;2.10;0.40;;;11.90;99.90;;;;;;4937038;29;20213;-74
2024/01/22 09:44:58;;;;;;;4.10;0.70;;;12.00;99.90;;;;;;4936768;29;20316;-74
2024/01/22 09:47:25;;;;;;;4.63;0.60;;;12.00;99.90;;;;;;4936862;29;20307;-74
2024/01/22 09:49:52;;;;;;;1.73;0.50;;;12.00;99.90;;;;;;4937042;29;20237;-74
2024/01/22 09:52:19;;;;;;;6.57;0.67;;;12.10;99.90;;;;;;4936630;29;20323;-74
2024/01/22 09:54:47;;;;;;;3.50;0.80;;;12.10;99.90;;;;;;4936484;29;20260;-74
2024/01/22 09:57:17;;;;;;;3.73;1.10;;;12.10;99.90;;;;;;4936971;29;20577;-75
2024/01/22 09:59:45;;;;;;;4.90;0.50;;;12.00;99.90;;;;;;4924874;29;20205;-75
2024/01/22 10:02:16;;;;;;;1.53;0.80;;;12.00;99.90;;;;;;4936725;29;20291;-75
2024/01/22 10:04:44;;;;;;;2.27;0.50;;;12.00;99.90;;;;;;4937052;29;20231;-75
2024/01/22 10:07:14;;;;;;;5.27;0.37;;;11.90;99.90;;;;;;4937062;29;20209;-75
2024/01/22 10:09:41;;;;;;;1.93;0.73;;;11.80;99.90;;;;;;4938076;29;20239;-75
2024/01/22 10:12:10;;;;;;;2.37;0.50;;;11.70;99.90;;;;;;4937838;29;20300;-75
2024/01/22 10:14:37;;;;;;;4.17;1.13;;;11.60;99.90;;;;;;4937200;29;20240;-75
2024/01/22 10:17:17;;;;;;;2.23;0.80;;;11.50;99.90;;;;;;4937385;29;20309;-76
2024/01/22 10:19:45;;;;;;;2.83;0.60;;;11.40;99.90;;;;;;4937602;29;20204;-76
2024/01/22 10:22:12;;;;;;;3.03;0.90;;;11.40;99.90;;;;;;4937277;29;20303;-75
2024/01/22 10:24:39;;;;;;;3.23;0.47;;;11.40;99.90;;;;;;4937262;29;20276;-75
2024/01/22 10:27:15;;;;;;;3.57;0.40;;;11.30;99.90;;;;;;4936869;29;20643;-75
2024/01/22 10:29:44;;;;;;;2.67;0.53;;;11.40;99.90;;;;;;4937465;29;20212;-75
2024/01/22 10:32:11;;;;;;;2.77;0.50;;;11.30;99.90;;;;;;4937684;29;20209;-75
2024/01/22 10:34:46;;;;;;;7.43;1.13;;;11.20;99.90;;;;;;4937391;29;20307;-74
2024/01/22 10:37:14;;;;;;;1.57;0.50;;;11.30;99.90;;;;;;4937624;29;20212;-75
2024/01/22 10:39:42;;;;;;;5.00;0.77;;;11.40;99.90;;;;;;4937407;29;20212;-75
2024/01/22 10:42:11;;;;;;;7.40;1.17;;;11.40;99.90;;;;;;4936355;29;20209;-74
2024/01/22 10:44:41;;;;;;;4.97;0.53;;;11.40;99.90;;;;;;4936648;29;20229;-75
2024/01/22 10:47:09;;;;;;;5.93;0.70;;;11.50;99.90;;;;;;4936548;29;20259;-75
2024/01/22 10:49:36;;;;;;;3.30;1.03;;;11.60;99.90;;;;;;4936148;29;20212;-74
2024/01/22 10:52:05;;;;;;;8.53;0.80;;;11.50;99.90;;;;;;4936842;29;20223;-75
2024/01/22 10:54:32;;;;;;;5.27;1.10;;;11.60;99.90;;;;;;4936732;29;20248;-75
2024/01/22 10:57:04;;;;;;;15.93;2.57;;;11.70;99.90;;;;;;4936919;29;20208;-75
2024/01/22 10:59:34;;;;;;;9.63;1.50;;;11.70;99.90;;;;;;4936824;29;20209;-75
2024/01/22 11:02:04;;;;;;;8.00;0.93;;;11.80;99.90;;;;;;4936915;29;20209;-75
2024/01/22 11:04:37;;;;;;;3.87;0.73;;;11.70;99.90;;;;;;4936582;29;20307;-75
2024/01/22 11:07:08;;;;;;;8.77;1.00;;;11.80;99.90;;;;;;4936565;29;20256;-74
2024/01/22 11:09:38;;;;;;;10.20;0.90;;;11.80;99.90;;;;;;4935846;29;20208;-75
2024/01/22 11:12:10;;;;;;;9.80;1.00;;;11.80;99.90;;;;;;4936514;29;20251;-75
2024/01/22 11:14:37;;;;;;;9.33;1.63;;;11.80;99.90;;;;;;4935771;29;20689;-75
2024/01/22 11:17:08;;;;;;;9.20;1.10;;;11.80;99.90;;;;;;4935741;29;20571;-75
2024/01/22 11:19:36;;;;;;;10.60;1.17;;;11.70;99.90;;;;;;4936006;29;20549;-75
2024/01/22 11:22:09;;;;;;;9.43;1.93;;;11.60;99.90;;;;;;4936166;29;20300;-75
2024/01/22 11:24:36;;;;;;;7.57;1.00;;;11.60;99.90;;;;;;4936009;29;20324;-75
2024/01/22 11:27:08;;;;;;;8.00;1.07;;;11.50;99.90;;;;;;4935938;29;20212;-75
2024/01/22 11:29:35;;;;;;;11.13;1.10;;;11.50;99.90;;;;;;4935809;29;20342;-75
2024/01/22 11:32:28;;;;;;;11.03;1.10;;;11.60;99.90;;;;;;4935999;29;20597;-75
2024/01/22 11:34:59;;;;;;;6.13;1.20;;;11.50;99.90;;;;;;4935916;29;20243;-75
2024/01/22 11:37:36;;;;;;;13.20;1.73;;;11.50;99.90;;;;;;4935946;29;20307;-75
2024/01/22 11:40:07;;;;;;;5.77;1.30;;;11.40;99.90;;;;;;4935622;29;20307;-75
2024/01/22 11:42:35;;;;;;;4.57;0.47;;;11.20;99.90;;;;;;4935680;29;20211;-75
2024/01/22 11:45:13;;;;;;;7.73;1.07;;;11.10;99.90;;;;;;4935738;29;20311;-74
2024/01/22 11:47:41;;;;;;;5.33;0.80;;;11.00;99.90;;;;;;4935605;29;20236;-75
2024/01/22 11:50:10;;;;;;;8.43;1.27;;;11.00;99.90;;;;;;4935427;29;20208;-75
2024/01/22 11:52:38;;;;;;;7.83;0.83;;;10.90;99.90;;;;;;4935306;29;20735;-74
2024/01/22 11:55:06;;;;;;;7.07;0.90;;;10.80;99.90;;;;;;4935259;29;20291;-74
2024/01/22 11:57:36;;;;;;;5.43;1.20;;;10.70;99.90;;;;;;4935478;29;20236;-75
2024/01/22 12:00:06;;;;;;;4.30;0.70;;;10.80;99.90;;;;;;4935203;29;20219;-74
2024/01/22 12:02:34;;;;;;;7.00;0.97;;;10.80;99.90;;;;;;4939100;29;20209;-75
2024/01/22 12:05:04;;;;;;;4.17;1.20;;;10.90;99.90;;;;;;4939052;29;20233;-74
2024/01/22 12:07:38;;;;;;;4.30;0.90;;;11.00;99.90;;;;;;4939359;29;20312;-74
2024/01/22 12:10:06;;;;;;;7.30;1.17;;;11.10;99.90;;;;;;4939165;29;20263;-74
2024/01/22 12:12:33;;;;;;;8.67;1.43;;;11.10;99.90;;;;;;4939060;29;20227;-73
2024/01/22 12:15:01;;;;;;;12.03;1.20;;;11.00;99.90;;;;;;4938964;29;20319;-75
2024/01/22 12:17:29;;;;;;;14.20;1.47;;;11.00;99.90;;;;;;4939627;29;20217;-75
2024/01/22 12:19:56;;;;;;;10.93;1.37;;;11.10;99.90;;;;;;4939002;29;20251;-74
2024/01/22 12:22:25;;;;;;;5.03;0.87;;;11.10;99.90;;;;;;4939414;29;20244;-75
2024/01/22 12:25:09;;;;;;;8.07;1.23;;;11.30;99.90;;;;;;4939146;29;20243;-75
2024/01/22 12:27:37;;;;;;;8.60;1.60;;;11.20;99.90;;;;;;4939225;29;20216;-74
2024/01/22 12:30:06;;;;;;;6.07;1.20;;;11.20;99.90;;;;;;4939754;29;20209;-74
2024/01/22 12:32:33;;;;;;;10.03;1.30;;;11.10;99.90;;;;;;4938529;29;20694;-75
2024/01/22 12:35:00;;;;;;;6.00;1.80;;;11.30;99.90;;;;;;4938657;29;20248;-74
2024/01/22 12:37:34;;;;;;;9.23;1.67;;;11.40;99.90;;;;;;4938775;29;20205;-74
2024/01/22 12:40:14;;;;;;;9.73;1.33;;;11.40;99.90;;;;;;4938460;29;20205;-74
2024/01/22 12:42:43;;;;;;;12.80;1.33;;;11.50;99.90;;;;;;4938903;29;20209;-74
2024/01/22 12:45:13;;;;;;;10.83;1.03;;;11.50;99.90;;;;;;4938292;29;20229;-74
2024/01/22 12:47:41;;;;;;;3.73;0.93;;;11.60;99.90;;;;;;4938527;29;20232;-74
2024/01/22 12:50:09;;;;;;;6.33;0.97;;;11.60;99.90;;;;;;4938409;29;20292;-74
2024/01/22 12:52:38;;;;;;;9.90;1.87;;;11.60;99.90;;;;;;4938310;29;20208;-74
2024/01/22 12:55:06;;;;;;;5.07;0.80;;;11.60;99.90;;;;;;4938115;29;20720;-74
2024/01/22 12:57:34;;;;;;;8.23;0.97;;;11.50;99.90;;;;;;4938257;29;20209;-74
2024/01/22 13:00:03;;;;;;;11.73;1.20;;;11.40;99.90;;;;;;4938346;29;20216;-74
2024/01/22 13:02:30;;;;;;;3.77;0.90;;;11.30;99.90;;;;;;4938160;29;20237;-74
2024/01/22 13:04:57;;;;;;;9.23;1.10;;;11.40;99.90;;;;;;4937861;29;20283;-74
2024/01/22 13:07:24;;;;;;;11.97;1.47;;;11.50;99.90;;;;;;4937661;29;20215;-73
2024/01/22 13:09:52;;;;;;;6.07;1.03;;;11.60;99.90;;;;;;4938314;29;20219;-74
2024/01/22 13:12:20;;;;;;;9.50;1.43;;;11.70;99.90;;;;;;4937604;29;20209;-74
2024/01/22 13:14:47;;;;;;;7.03;1.30;;;11.70;99.90;;;;;;4937863;29;20336;-74
2024/01/22 13:17:14;;;;;;;4.53;1.50;;;11.50;99.90;;;;;;4937967;29;20300;-74
2024/01/22 13:19:41;;;;;;;8.17;1.13;;;11.50;99.90;;;;;;4937727;29;20644;-74
2024/01/22 13:22:07;;;;;;;6.63;1.03;;;11.60;99.90;;;;;;4937927;29;20735;-74
2024/01/22 13:24:34;;;;;;;5.37;0.80;;;11.70;99.90;;;;;;4937831;29;20233;-74
2024/01/22 13:27:03;;;;;;;9.80;0.87;;;11.80;99.90;;;;;;4937494;29;20304;-73
2024/01/22 13:29:30;;;;;;;8.00;0.90;;;11.90;99.90;;;;;;4937453;29;20244;-74
2024/01/22 13:31:57;;;;;;;7.40;0.73;;;11.80;99.90;;;;;;4937866;29;20307;-74
2024/01/22 13:34:26;;;;;;;6.17;0.87;;;11.90;99.90;;;;;;4937510;29;20722;-74
2024/01/22 13:36:53;;;;;;;12.00;1.40;;;11.80;99.90;;;;;;4937889;29;20256;-74
2024/01/22 13:39:20;;;;;;;7.53;1.00;;;11.80;99.90;;;;;;4937554;29;20220;-74
2024/01/22 13:41:48;;;;;;;8.17;1.17;;;11.80;99.90;;;;;;4937912;29;20304;-74
2024/01/22 13:44:17;;;;;;;7.93;1.10;;;11.90;99.90;;;;;;4936929;29;20649;-74
2024/01/22 13:46:44;;;;;;;6.43;1.23;;;11.90;99.90;;;;;;4937252;29;20219;-74
2024/01/22 13:49:11;;;;;;;5.47;1.60;;;12.00;99.90;;;;;;4937164;29;20212;-74
2024/01/22 13:51:38;;;;;;;6.67;1.10;;;12.00;99.90;;;;;;4937372;29;20208;-74
2024/01/22 13:54:06;;;;;;;6.87;1.23;;;12.10;99.90;;;;;;4937018;29;20241;-74
2024/01/22 13:56:35;;;;;;;6.20;0.83;;;12.00;99.90;;;;;;4937117;29;20228;-74
2024/01/22 13:59:03;;;;;;;8.10;1.00;;;11.90;99.90;;;;;;4937174;29;20215;-73
2024/01/22 14:01:31;;;;;;;9.33;1.13;;;11.90;99.90;;;;;;4937119;29;20633;-75
2024/01/22 14:03:58;;;;;;;7.57;1.00;;;12.10;99.90;;;;;;4937988;29;20233;-75
2024/01/22 14:06:25;;;;;;;10.17;2.63;;;12.20;99.90;;;;;;4937494;29;20213;-75
2024/01/22 14:08:52;;;;;;;9.27;1.33;;;12.20;99.90;;;;;;4936975;29;20205;-74
2024/01/22 14:11:19;;;;;;;12.67;1.10;;;12.10;99.90;;;;;;4936911;29;20738;-74
2024/01/22 14:13:46;;;;;;;6.23;1.47;;;12.00;99.90;;;;;;4936688;29;20236;-74
2024/01/22 14:16:13;;;;;;;7.50;1.43;;;12.00;99.90;;;;;;4936656;29;20209;-74
2024/01/22 14:18:43;;;;;;;16.90;1.60;;;12.10;99.90;;;;;;4936560;29;20213;-74
2024/01/22 14:21:09;;;;;;;1.70;0.53;;;12.00;99.90;;;;;;4936612;29;20739;-74
2024/01/22 14:23:36;;;;;;;9.33;1.50;;;12.00;99.90;;;;;;4936947;29;20328;-75
2024/01/22 14:26:03;;;;;;;6.27;1.10;;;11.90;99.90;;;;;;4935733;29;20215;-74
2024/01/22 14:28:30;;;;;;;4.93;0.77;;;11.70;99.90;;;;;;4936199;29;20695;-74
2024/01/22 14:30:57;;;;;;;6.13;0.73;;;11.60;99.90;;;;;;4936270;29;20215;-75
2024/01/22 14:33:24;;;;;;;6.73;1.10;;;11.50;99.90;;;;;;4936121;29;20674;-74
2024/01/22 14:35:53;;;;;;;10.23;1.00;;;11.30;99.90;;;;;;4936415;29;20241;-74
2024/01/22 14:38:20;;;;;;;6.23;0.70;;;11.10;99.90;;;;;;4936209;29;20633;-74
2024/01/22 14:40:47;;;;;;;8.27;0.90;;;11.10;99.90;;;;;;4936353;29;20309;-74
2024/01/22 14:43:14;;;;;;;5.57;1.27;;;11.10;99.90;;;;;;4936095;29;20228;-74
2024/01/22 14:45:42;;;;;;;8.00;0.80;;;11.10;99.90;;;;;;4936338;29;20213;-74
2024/01/22 14:48:11;;;;;;;2.07;0.83;;;11.10;99.90;;;;;;4936303;29;20212;-74
2024/01/22 14:50:38;;;;;;;8.13;1.13;;;11.10;99.90;;;;;;4936020;29;20691;-74
2024/01/22 14:53:06;;;;;;;2.53;0.50;;;11.00;99.90;;;;;;4936253;29;20215;-74
2024/01/22 14:55:34;;;;;;;3.87;1.47;;;10.90;99.90;;;;;;4935998;29;20236;-74
2024/01/22 14:58:01;;;;;;;6.70;0.70;;;10.90;99.90;;;;;;4936041;29;20291;-74
2024/01/22 15:00:28;;;;;;;7.03;0.60;;;10.80;99.90;;;;;;4936161;29;20251;-74
2024/01/22 15:02:56;;;;;;;1.63;0.80;;;10.70;99.90;;;;;;4935949;29;20212;-74
2024/01/22 15:05:23;;;;;;;6.50;0.60;;;10.60;99.90;;;;;;4936313;29;20213;-74
2024/01/22 15:07:50;;;;;;;6.57;1.23;;;10.60;99.90;;;;;;4935972;29;20204;-74
2024/01/22 15:10:19;;;;;;;4.27;0.97;;;10.50;99.90;;;;;;4935975;29;20216;-74
2024/01/22 15:12:46;;;;;;;5.27;0.67;;;10.50;99.90;;;;;;4936128;29;20209;-74
2024/01/22 15:15:13;;;;;;;7.80;0.77;;;10.50;99.90;;;;;;4936102;29;20272;-74
2024/01/22 15:17:41;;;;;;;2.30;0.50;;;10.60;99.90;;;;;;4935855;29;20295;-74
2024/01/22 15:20:09;;;;;;;8.43;0.80;;;10.60;99.90;;;;;;4935638;29;20213;-74
2024/01/22 15:22:37;;;;;;;2.93;0.83;;;10.60;99.90;;;;;;4935851;29;20236;-74
2024/01/22 15:25:05;;;;;;;4.60;0.70;;;10.50;99.90;;;;;;4935552;29;20264;-74
2024/01/22 15:27:33;;;;;;;6.80;0.60;;;10.50;99.90;;;;;;4936150;29;20582;-74
2024/01/22 15:30:00;;;;;;;6.10;0.63;;;10.40;99.90;;;;;;4936051;29;20215;-74
2024/01/22 15:32:27;;;;;;;6.03;1.00;;;10.30;99.90;;;;;;4938069;29;20755;-74
2024/01/22 15:34:54;;;;;;;6.03;0.73;;;10.40;99.90;;;;;;4935702;29;20240;-74
2024/01/22 15:37:21;;;;;;;3.00;0.43;;;10.30;99.90;;;;;;4938894;29;20719;-74
2024/01/22 15:39:49;;;;;;;5.80;1.00;;;10.30;99.90;;;;;;4940509;29;20268;-74
2024/01/22 15:42:17;;;;;;;8.60;1.17;;;10.30;99.90;;;;;;4941344;29;20215;-74
2024/01/22 15:44:45;;;;;;;12.70;1.20;;;10.20;99.90;;;;;;4939979;29;20224;-74
2024/01/22 15:47:12;;;;;;;5.57;0.93;;;10.30;99.90;;;;;;4939951;29;20209;-74
2024/01/22 15:49:39;;;;;;;5.37;0.80;;;10.20;99.90;;;;;;4950451;29;20192;-74
2024/01/22 15:52:06;;;;;;;7.27;1.13;;;10.20;99.90;;;;;;4945516;29;20676;-74
2024/01/22 15:54:34;;;;;;;6.87;1.07;;;10.20;99.90;;;;;;4941208;29;20321;-74
2024/01/22 15:57:01;;;;;;;6.03;0.77;;;10.10;99.90;;;;;;4939913;29;20209;-75
2024/01/22 15:59:28;;;;;;;8.60;0.80;;;10.10;99.90;;;;;;4939709;29;20251;-74
2024/01/22 16:01:57;;;;;;;5.67;0.50;;;10.10;99.90;;;;;;4939453;29;20296;-74
2024/01/22 16:04:23;;;;;;;9.60;1.00;;;10.10;99.90;;;;;;4939132;29;20758;-74
2024/01/22 16:06:51;;;;;;;10.40;1.20;;;10.10;99.90;;;;;;4938966;29;20217;-74
2024/01/22 16:09:18;;;;;;;4.57;0.90;;;10.00;99.90;;;;;;4939268;29;20217;-74
2024/01/22 16:11:44;;;;;;;3.70;0.80;;;9.90;99.90;;;;;;4939017;29;20589;-74
2024/01/22 16:14:13;;;;;;;3.87;0.87;;;9.90;99.90;;;;;;4938907;29;20240;-74
2024/01/22 16:16:39;;;;;;;4.53;1.70;;;9.80;99.90;;;;;;4939159;29;20553;-74
2024/01/22 16:19:13;;;;;;;7.17;1.13;;;9.80;99.90;;;;;;4938901;29;20307;-74
2024/01/22 16:21:40;;;;;;;5.53;0.80;;;9.70;99.90;;;;;;4939244;29;20209;-74
2024/01/22 16:24:07;;;;;;;3.63;0.80;;;9.80;99.90;;;;;;4939082;29;20312;-74
2024/01/22 16:26:34;;;;;;;8.90;1.17;;;9.70;99.90;;;;;;4938837;29;20575;-74
2024/01/22 16:29:02;;;;;;;7.43;1.10;;;9.70;99.90;;;;;;4938770;29;20243;-74
2024/01/22 16:31:28;;;;;;;4.27;0.80;;;9.70;99.90;;;;;;4938703;29;20236;-74
2024/01/22 16:33:55;;;;;;;3.80;0.80;;;9.60;99.90;;;;;;4938563;29;20229;-74
2024/01/22 16:36:25;;;;;;;8.87;0.70;;;9.60;99.90;;;;;;4938457;29;20237;-74
2024/01/22 16:38:51;;;;;;;3.77;1.00;;;9.60;99.90;;;;;;4938807;29;20236;-74
2024/01/22 16:41:19;;;;;;;7.50;0.87;;;9.50;99.90;;;;;;4938481;29;20209;-74
2024/01/22 16:43:46;;;;;;;6.67;1.27;;;9.50;99.90;;;;;;4938421;29;20251;-74
2024/01/22 16:46:13;;;;;;;5.00;0.90;;;9.60;99.90;;;;;;4938520;29;20212;-74
2024/01/22 16:48:40;;;;;;;8.37;1.27;;;9.50;99.90;;;;;;4937534;29;20212;-74
2024/01/22 16:51:08;;;;;;;5.70;0.97;;;9.50;99.90;;;;;;4938563;29;20667;-74
2024/01/22 16:53:37;;;;;;;5.37;0.73;;;9.60;99.90;;;;;;4938339;29;20255;-74
2024/01/22 16:56:05;;;;;;;4.77;1.13;;;9.50;99.90;;;;;;4938120;29;20680;-74
2024/01/22 16:58:32;;;;;;;7.20;1.07;;;9.40;99.90;;;;;;4937941;29;20213;-74
2024/01/22 17:00:59;;;;;;;5.27;1.40;;;9.40;99.90;;;;;;4937961;29;20660;-74
2024/01/22 17:03:26;;;;;;;7.13;1.00;;;9.40;99.90;;;;;;4938132;29;20233;-75
2024/01/22 17:05:54;;;;;;;6.57;1.43;;;9.40;99.90;;;;;;4938024;29;20308;-74
2024/01/22 17:08:20;;;;;;;5.73;0.80;;;9.50;99.90;;;;;;4938208;29;20304;-74
2024/01/22 17:10:49;;;;;;;6.93;0.90;;;9.40;99.90;;;;;;4938213;29;20213;-74
2024/01/22 17:13:16;;;;;;;4.80;0.80;;;9.40;99.90;;;;;;4937584;29;20611;-74
2024/01/22 17:15:43;;;;;;;9.53;1.90;;;9.40;99.90;;;;;;4937897;29;20403;-74
2024/01/22 17:18:09;;;;;;;6.60;0.90;;;9.40;99.90;;;;;;4937807;29;20304;-74
2024/01/22 17:20:36;;;;;;;4.80;0.90;;;9.50;99.90;;;;;;4937386;29;20204;-74
2024/01/22 17:23:03;;;;;;;3.77;0.67;;;9.40;99.90;;;;;;4937477;29;20296;-75
2024/01/22 17:25:30;;;;;;;10.00;1.10;;;9.50;99.90;;;;;;4937448;29;20311;-74
2024/01/22 17:27:58;;;;;;;1.47;0.50;;;9.40;99.90;;;;;;4937150;29;20259;-75
2024/01/22 17:30:25;;;;;;;6.27;1.10;;;9.40;99.90;;;;;;4937608;29;20235;-74
2024/01/22 17:32:52;;;;;;;6.93;1.20;;;9.50;99.90;;;;;;4937244;29;20208;-74
2024/01/22 17:35:19;;;;;;;7.10;1.23;;;9.50;99.90;;;;;;4937574;29;20339;-74
2024/01/22 17:37:46;;;;;;;1.97;0.70;;;9.50;99.90;;;;;;4937372;29;20300;-74
2024/01/22 17:40:13;;;;;;;7.33;1.10;;;9.50;99.90;;;;;;4937143;29;20216;-74
2024/01/22 17:42:40;;;;;;;10.43;1.47;;;9.40;99.90;;;;;;4936972;29;20208;-74
2024/01/22 17:45:09;;;;;;;7.63;1.53;;;9.50;99.90;;;;;;4937212;29;20668;-74
2024/01/22 17:47:36;;;;;;;2.90;0.90;;;9.40;99.90;;;;;;4937177;29;20283;-74
2024/01/22 17:50:03;;;;;;;8.97;1.77;;;9.40;99.90;;;;;;4937071;29;20616;-74
2024/01/22 17:52:30;;;;;;;4.97;1.07;;;9.30;99.90;;;;;;4937198;29;20209;-74
2024/01/22 17:54:57;;;;;;;4.13;0.73;;;9.30;99.90;;;;;;4936745;29;20323;-74
2024/01/22 17:57:24;;;;;;;10.03;0.90;;;9.30;99.90;;;;;;4937510;29;20295;-75
2024/01/22 17:59:51;;;;;;;5.40;0.70;;;9.20;99.90;;;;;;4937076;29;20213;-75
2024/01/22 18:02:19;;;;;;;2.80;0.40;;;9.20;99.90;;;;;;4937021;29;20209;-74
2024/01/22 18:04:46;;;;;;;6.63;1.27;;;9.10;99.90;;;;;;4936624;29;20265;-74
2024/01/22 18:07:13;;;;;;;1.23;0.57;;;9.10;99.90;;;;;;4936735;29;20212;-74
2024/01/22 18:09:40;;;;;;;3.87;0.60;;;9.10;99.90;;;;;;4936444;29;20299;-74
2024/01/22 18:12:08;;;;;;;2.40;0.63;;;9.10;99.90;;;;;;4936756;29;20219;-74
2024/01/22 18:14:38;;;;;;;5.10;0.73;;;9.10;99.90;;;;;;4936419;29;20232;-74
2024/01/22 18:17:05;;;;;;;2.87;0.60;;;8.90;99.90;;;;;;4936580;29;20213;-74
2024/01/22 18:19:33;;;;;;;4.07;0.70;;;9.00;99.90;;;;;;4936620;29;20289;-74
2024/01/22 18:22:00;;;;;;;7.00;0.90;;;8.90;99.90;;;;;;4936630;29;20223;-74
2024/01/22 18:24:27;;;;;;;5.30;0.63;;;8.90;99.90;;;;;;4936194;29;20224;-74
2024/01/22 18:26:54;;;;;;;5.03;0.73;;;8.90;99.90;;;;;;4936437;29;20308;-74
2024/01/22 18:29:22;;;;;;;8.17;0.93;;;8.90;99.90;;;;;;4936608;29;20220;-74
2024/01/22 18:31:49;;;;;;;7.57;1.43;;;8.90;99.90;;;;;;4936927;29;20205;-74
2024/01/22 18:34:16;;;;;;;5.40;0.80;;;8.90;99.90;;;;;;4936407;29;20591;-74
2024/01/22 18:36:44;;;;;;;3.73;0.73;;;8.90;99.90;;;;;;4932992;29;20294;-74
2024/01/22 18:39:13;;;;;;;4.87;0.83;;;8.90;99.90;;;;;;4924287;29;20209;-74
2024/01/22 18:41:40;;;;;;;4.03;0.93;;;8.90;99.90;;;;;;4934614;29;20204;-73
2024/01/22 18:44:07;;;;;;;5.80;1.03;;;8.90;99.90;;;;;;4940622;29;20588;-73
2024/01/22 18:46:35;;;;;;;3.07;1.07;;;8.90;99.90;;;;;;4928113;28;20674;-74
2024/01/22 18:49:03;;;;;;;3.83;0.80;;;8.90;99.90;;;;;;4936189;28;20303;-73
2024/01/22 18:51:30;;;;;;;15.43;1.90;;;8.90;99.90;;;;;;4935725;29;20213;-73
2024/01/22 18:53:59;;;;;;;3.73;0.60;;;8.80;99.90;;;;;;4935422;29;20228;-74
2024/01/22 18:56:27;;;;;;;4.83;1.30;;;9.00;99.90;;;;;;4935579;29;20600;-73
2024/01/22 18:58:53;;;;;;;8.23;1.33;;;9.10;99.90;;;;;;4935152;29;20656;-74
2024/01/22 19:01:20;;;;;;;10.17;1.00;;;9.10;99.90;;;;;;4935208;29;20244;-74
2024/01/22 19:03:47;;;;;;;7.90;1.27;;;9.00;99.90;;;;;;4935133;29;20276;-74
2024/01/22 19:06:14;;;;;;;6.83;1.17;;;9.10;99.90;;;;;;4936611;29;20303;-74
2024/01/22 19:08:41;;;;;;;7.27;1.57;;;9.20;99.90;;;;;;4930971;29;20208;-73
2024/01/22 19:11:10;;;;;;;9.97;0.80;;;9.20;99.90;;;;;;4931439;29;20205;-75
2024/01/22 19:13:40;;;;;;;3.97;0.97;;;9.30;99.90;;;;;;4934904;29;20229;-74
2024/01/22 19:16:07;;;;;;;7.77;1.07;;;9.30;99.90;;;;;;4935191;29;20228;-74
2024/01/22 19:18:34;;;;;;;10.97;1.00;;;9.20;99.90;;;;;;4935197;29;20688;-74
2024/01/22 19:21:01;;;;;;;5.70;1.07;;;9.20;99.90;;;;;;4935380;29;20204;-73
2024/01/22 19:23:28;;;;;;;7.33;1.10;;;9.10;99.90;;;;;;4935388;29;20324;-74
2024/01/22 19:25:55;;;;;;;7.27;1.53;;;9.00;99.90;;;;;;4935405;29;20328;-74
2024/01/22 19:28:23;;;;;;;5.87;1.77;;;8.90;99.90;;;;;;4935124;29;20688;-74
2024/01/22 19:30:50;;;;;;;5.63;1.57;;;9.00;99.90;;;;;;4935205;29;20232;-74
2024/01/22 19:33:17;;;;;;;3.33;0.67;;;9.00;99.90;;;;;;4935169;29;20315;-74
2024/01/22 19:35:44;;;;;;;11.47;1.80;;;8.90;99.90;;;;;;4935531;29;20236;-74
2024/01/22 19:38:10;;;;;;;8.43;1.30;;;8.90;99.90;;;;;;4932531;29;20245;-74
2024/01/22 19:40:37;;;;;;;11.50;1.60;;;8.90;99.90;;;;;;4926701;29;20276;-74
2024/01/22 19:43:04;;;;;;;6.43;1.70;;;8.80;99.90;;;;;;4934809;29;20304;-74
2024/01/22 19:45:32;;;;;;;10.13;1.20;;;8.80;99.90;;;;;;4929124;29;20218;-74
2024/01/22 19:47:59;;;;;;;9.43;0.90;;;8.80;99.90;;;;;;4928671;29;20599;-74
2024/01/22 19:50:26;;;;;;;8.60;1.10;;;8.80;99.90;;;;;;4941233;29;20208;-74
2024/01/22 19:52:53;;;;;;;5.67;1.60;;;8.80;99.90;;;;;;4941413;29;20209;-74
2024/01/22 19:55:20;;;;;;;7.17;0.90;;;8.80;99.90;;;;;;4934908;29;20627;-74
2024/01/22 19:57:47;;;;;;;6.93;1.63;;;8.80;99.90;;;;;;4934791;29;20217;-74
2024/01/22 20:00:14;;;;;;;8.40;1.07;;;8.90;99.90;;;;;;4922907;29;20205;-74
2024/01/22 20:02:44;;;;;;;5.30;0.73;;;9.00;99.90;;;;;;4935254;29;20219;-74
2024/01/22 20:05:11;;;;;;;4.63;1.00;;;9.00;99.90;;;;;;4925093;29;20232;-74
2024/01/22 20:07:38;;;;;;;7.07;1.47;;;9.00;99.90;;;;;;4940335;29;20251;-75
2024/01/22 20:10:05;;;;;;;9.27;0.93;;;9.00;99.90;;;;;;4927842;29;20547;-74
2024/01/22 20:12:33;;;;;;;8.80;1.77;;;8.90;99.90;;;;;;4930687;29;20303;-74
2024/01/22 20:14:59;;;;;;;5.70;1.00;;;9.00;99.90;;;;;;4934967;29;20235;-74
2024/01/22 20:17:26;;;;;;;5.63;0.93;;;8.90;99.90;;;;;;4934544;29;20267;-74
2024/01/22 20:19:55;;;;;;;7.83;1.40;;;9.00;99.90;;;;;;4935023;29;20296;-74
2024/01/22 20:22:21;;;;;;;6.63;0.83;;;9.00;99.90;;;;;;4936016;29;20208;-74
2024/01/22 20:24:48;;;;;;;10.97;1.40;;;9.10;99.90;;;;;;4939236;29;20311;-74
2024/01/22 20:27:15;;;;;;;10.00;1.20;;;9.10;99.90;;;;;;4938203;29;20216;-74
2024/01/22 20:29:42;;;;;;;5.43;0.70;;;9.00;99.90;;;;;;4938706;29;20205;-74
2024/01/22 20:32:10;;;;;;;7.70;1.03;;;9.10;99.90;;;;;;4938594;29;20631;-74
2024/01/22 20:34:37;;;;;;;11.33;1.70;;;9.10;99.90;;;;;;4938307;29;20316;-74
2024/01/22 20:37:05;;;;;;;16.43;0.97;;;9.10;99.90;;;;;;4938126;29;20339;-74
2024/01/22 20:39:32;;;;;;;6.90;1.00;;;9.20;99.90;;;;;;4938088;29;20740;-74
2024/01/22 20:41:59;;;;;;;4.70;0.70;;;9.20;99.90;;;;;;4937907;29;20212;-74
2024/01/22 20:44:28;;;;;;;10.93;1.10;;;9.20;99.90;;;;;;4938269;29;20229;-74
2024/01/22 20:46:55;;;;;;;11.13;1.93;;;9.30;99.90;;;;;;4937965;29;20212;-74
2024/01/22 20:49:22;;;;;;;2.17;1.00;;;9.30;99.90;;;;;;4938074;29;20211;-74
2024/01/22 20:51:49;;;;;;;8.63;1.50;;;9.20;99.90;;;;;;4937637;29;20215;-74
2024/01/22 20:54:17;;;;;;;4.07;0.67;;;9.20;99.90;;;;;;4937916;29;20596;-74
2024/01/22 20:56:44;;;;;;;9.93;1.30;;;9.10;99.90;;;;;;4937610;29;20771;-74
2024/01/22 20:59:11;;;;;;;8.07;1.10;;;9.00;99.90;;;;;;4937802;29;20715;-73
2024/01/22 21:01:42;;;;;;;10.23;1.20;;;8.90;99.90;;;;;;4937460;29;20652;-74
2024/01/22 21:04:08;;;;;;;8.43;1.00;;;8.90;99.90;;;;;;4937618;29;20309;-74
2024/01/22 21:06:35;;;;;;;11.77;1.20;;;8.90;99.90;;;;;;4937359;29;20287;-74
2024/01/22 21:09:06;;;;;;;4.73;0.90;;;8.80;99.90;;;;;;4937637;29;20280;-74
2024/01/22 21:11:34;;;;;;;6.73;1.20;;;8.80;99.90;;;;;;4937478;29;20235;-74
2024/01/22 21:14:01;;;;;;;6.47;0.90;;;8.70;99.90;;;;;;4937338;29;20228;-74
2024/01/22 21:16:28;;;;;;;5.77;0.80;;;8.70;99.90;;;;;;4925518;29;20315;-74
2024/01/22 21:18:55;;;;;;;7.20;1.20;;;8.70;99.90;;;;;;4937460;29;20205;-74
2024/01/22 21:21:22;;;;;;;13.17;1.13;;;8.70;99.90;;;;;;4925447;29;20292;-74